sensor_id;sensor_type;location;lat;lon;timestamp;pressure;altitude;pressure_sealevel;temperature
69785;BMP280;14177;51.520;6.764;2022-09-25T00:01:09;101222.88;;;14.12
69785;BMP280;14177;51.520;6.764;2022-09-25T00:03:38;101220.25;;;14.12
69785;BMP280;14177;51.520;6.764;2022-09-25T00:06:20;101224.66;;;14.12
69785;BMP280;14177;51.520;6.764;2022-09-25T00:08:48;101230.72;;;14.12
69785;BMP280;14177;51.520;6.764;2022-09-25T00:11:20;101227.19;;;14.13
69785;BMP280;14177;51.520;6.764;2022-09-25T00:13:48;101233.31;;;14.12
69785;BMP280;14177;51.520;6.764;2022-09-25T00:16:19;101229.00;;;14.11
69785;BMP280;14177;51.520;6.764;2022-09-25T00:18:46;101229.81;;;14.13
69785;BMP280;14177;51.520;6.764;2022-09-25T00:21:33;101236.84;;;14.11
69785;BMP280;14177;51.520;6.764;2022-09-25T00:24:04;101233.44;;;14.09
69785;BMP280;14177;51.520;6.764;2022-09-25T00:26:37;101227.31;;;14.10
69785;BMP280;14177;51.520;6.764;2022-09-25T00:29:06;101227.19;;;14.13
69785;BMP280;14177;51.520;6.764;2022-09-25T00:31:33;101232.41;;;14.13
69785;BMP280;14177;51.520;6.764;2022-09-25T00:34:03;101233.31;;;14.12
69785;BMP280;14177;51.520;6.764;2022-09-25T00:36:32;101224.66;;;14.12
69785;BMP280;14177;51.520;6.764;2022-09-25T00:39:00;101230.78;;;14.11
69785;BMP280;14177;51.520;6.764;2022-09-25T00:41:29;101228.22;;;14.09
69785;BMP280;14177;51.520;6.764;2022-09-25T00:44:00;101233.44;;;14.09
69785;BMP280;14177;51.520;6.764;2022-09-25T00:46:38;101229.13;;;14.08
69785;BMP280;14177;51.520;6.764;2022-09-25T00:49:18;101230.00;;;14.09
69785;BMP280;14177;51.520;6.764;2022-09-25T00:52:05;101227.44;;;14.07
69785;BMP280;14177;51.520;6.764;2022-09-25T00:57:17;101229.25;;;14.05
69785;BMP280;14177;51.520;6.764;2022-09-25T00:59:56;101229.31;;;14.04
69785;BMP280;14177;51.520;6.764;2022-09-25T01:02:30;101233.78;;;14.00
69785;BMP280;14177;51.520;6.764;2022-09-25T01:05:10;101233.00;;;13.98
69785;BMP280;14177;51.520;6.764;2022-09-25T01:07:42;101235.59;;;13.98
69785;BMP280;14177;51.520;6.764;2022-09-25T01:10:11;101236.50;;;13.97
69785;BMP280;14177;51.520;6.764;2022-09-25T01:12:45;101238.22;;;13.98
69785;BMP280;14177;51.520;6.764;2022-09-25T01:15:18;101237.38;;;13.98
69785;BMP280;14177;51.520;6.764;2022-09-25T01:18:05;101243.56;;;13.95
69785;BMP280;14177;51.520;6.764;2022-09-25T01:30:09;101238.66;;;13.86
69785;BMP280;14177;51.520;6.764;2022-09-25T01:32:56;101235.25;;;13.84
69785;BMP280;14177;51.520;6.764;2022-09-25T01:38:31;101234.53;;;13.81
69785;BMP280;14177;51.520;6.764;2022-09-25T01:41:31;101234.53;;;13.81
69785;BMP280;14177;51.520;6.764;2022-09-25T01:44:10;101238.94;;;13.80
69785;BMP280;14177;51.520;6.764;2022-09-25T01:46:46;101236.44;;;13.77
69785;BMP280;14177;51.520;6.764;2022-09-25T01:50:07;101232.13;;;13.76
69785;BMP280;14177;51.520;6.764;2022-09-25T01:52:44;101240.75;;;13.78
69785;BMP280;14177;51.520;6.764;2022-09-25T01:55:26;101233.81;;;13.77
69785;BMP280;14177;51.520;6.764;2022-09-25T01:58:26;101234.66;;;13.78
69785;BMP280;14177;51.520;6.764;2022-09-25T02:01:13;101239.88;;;13.78
69785;BMP280;14177;51.520;6.764;2022-09-25T02:03:50;101236.44;;;13.77
69785;BMP280;14177;51.520;6.764;2022-09-25T02:06:19;101232.22;;;13.73
69785;BMP280;14177;51.520;6.764;2022-09-25T02:09:15;101237.44;;;13.73
69785;BMP280;14177;51.520;6.764;2022-09-25T02:11:51;101240.84;;;13.75
69785;BMP280;14177;51.520;6.764;2022-09-25T02:14:30;101236.53;;;13.74
69785;BMP280;14177;51.520;6.764;2022-09-25T02:17:03;101239.16;;;13.74
69785;BMP280;14177;51.520;6.764;2022-09-25T02:19:31;101237.47;;;13.72
69785;BMP280;14177;51.520;6.764;2022-09-25T02:22:29;101240.97;;;13.72
69785;BMP280;14177;51.520;6.764;2022-09-25T02:25:30;101249.59;;;13.74
69785;BMP280;14177;51.520;6.764;2022-09-25T02:27:59;101246.28;;;13.69
69785;BMP280;14177;51.520;6.764;2022-09-25T02:30:27;101248.94;;;13.68
69785;BMP280;14177;51.520;6.764;2022-09-25T02:32:55;101255.94;;;13.67
69785;BMP280;14177;51.520;6.764;2022-09-25T02:35:24;101258.66;;;13.64
69785;BMP280;14177;51.520;6.764;2022-09-25T02:37:53;101254.34;;;13.63
69785;BMP280;14177;51.520;6.764;2022-09-25T02:41:12;101259.72;;;13.59
69785;BMP280;14177;51.520;6.764;2022-09-25T02:46:57;101258.97;;;13.55
69785;BMP280;14177;51.520;6.764;2022-09-25T02:53:13;101251.19;;;13.54
69785;BMP280;14177;51.520;6.764;2022-09-25T02:56:08;101254.72;;;13.53
69785;BMP280;14177;51.520;6.764;2022-09-25T02:58:48;101253.75;;;13.55
69785;BMP280;14177;51.520;6.764;2022-09-25T03:01:21;101254.72;;;13.53
69785;BMP280;14177;51.520;6.764;2022-09-25T03:03:52;101252.16;;;13.51
69785;BMP280;14177;51.520;6.764;2022-09-25T03:06:24;101254.88;;;13.48
69785;BMP280;14177;51.520;6.764;2022-09-25T03:08:55;101245.28;;;13.49
69785;BMP280;14177;51.520;6.764;2022-09-25T03:11:25;101249.59;;;13.50
69785;BMP280;14177;51.520;6.764;2022-09-25T03:14:06;101248.75;;;13.49
69785;BMP280;14177;51.520;6.764;2022-09-25T03:16:47;101254.09;;;13.46
69785;BMP280;14177;51.520;6.764;2022-09-25T03:19:16;101249.72;;;13.47
69785;BMP280;14177;51.520;6.764;2022-09-25T03:21:46;101255.06;;;13.44
69785;BMP280;14177;51.520;6.764;2022-09-25T03:24:14;101262.03;;;13.43
69785;BMP280;14177;51.520;6.764;2022-09-25T03:26:42;101254.28;;;13.40
69785;BMP280;14177;51.520;6.764;2022-09-25T03:29:12;101251.91;;;13.34
69785;BMP280;14177;51.520;6.764;2022-09-25T03:31:40;101247.66;;;13.32
69785;BMP280;14177;51.520;6.764;2022-09-25T03:34:14;101250.25;;;13.32
69785;BMP280;14177;51.520;6.764;2022-09-25T03:36:44;101247.75;;;13.29
69785;BMP280;14177;51.520;6.764;2022-09-25T03:39:15;101237.25;;;13.31
69785;BMP280;14177;51.520;6.764;2022-09-25T03:41:43;101236.44;;;13.29
69785;BMP280;14177;51.520;6.764;2022-09-25T03:44:11;101233.91;;;13.27
69785;BMP280;14177;51.520;6.764;2022-09-25T03:46:38;101234.91;;;13.23
69785;BMP280;14177;51.520;6.764;2022-09-25T03:49:05;101237.56;;;13.22
69785;BMP280;14177;51.520;6.764;2022-09-25T03:51:33;101239.34;;;13.21
69785;BMP280;14177;51.520;6.764;2022-09-25T03:54:01;101238.44;;;13.22
69785;BMP280;14177;51.520;6.764;2022-09-25T03:56:29;101241.09;;;13.21
69785;BMP280;14177;51.520;6.764;2022-09-25T03:58:57;101253.22;;;13.22
69785;BMP280;14177;51.520;6.764;2022-09-25T04:01:26;101242.06;;;13.18
69785;BMP280;14177;51.520;6.764;2022-09-25T04:03:54;101243.78;;;13.18
69785;BMP280;14177;51.520;6.764;2022-09-25T04:06:24;101243.91;;;13.15
69785;BMP280;14177;51.520;6.764;2022-09-25T04:08:52;101240.50;;;13.13
69785;BMP280;14177;51.520;6.764;2022-09-25T04:11:22;101239.72;;;13.11
69785;BMP280;14177;51.520;6.764;2022-09-25T04:13:50;101237.13;;;13.11
69785;BMP280;14177;51.520;6.764;2022-09-25T04:16:19;101245.94;;;13.07
69785;BMP280;14177;51.520;6.764;2022-09-25T04:18:47;101233.84;;;13.04
69785;BMP280;14177;51.520;6.764;2022-09-25T04:21:16;101233.91;;;13.03
69785;BMP280;14177;51.520;6.764;2022-09-25T04:23:43;101240.97;;;12.99
69785;BMP280;14177;51.520;6.764;2022-09-25T04:26:31;101242.94;;;12.93
69785;BMP280;14177;51.520;6.764;2022-09-25T04:28:58;101233.47;;;12.89
69785;BMP280;14177;51.520;6.764;2022-09-25T04:31:28;101239.63;;;12.86
69785;BMP280;14177;51.520;6.764;2022-09-25T04:33:55;101238.81;;;12.84
69785;BMP280;14177;51.520;6.764;2022-09-25T04:36:22;101238.03;;;12.82
69785;BMP280;14177;51.520;6.764;2022-09-25T04:38:49;101238.09;;;12.81
69785;BMP280;14177;51.520;6.764;2022-09-25T04:41:17;101235.47;;;12.81
69785;BMP280;14177;51.520;6.764;2022-09-25T04:43:46;101237.28;;;12.79
69785;BMP280;14177;51.520;6.764;2022-09-25T04:46:14;101234.72;;;12.77
69785;BMP280;14177;51.520;6.764;2022-09-25T04:48:48;101244.31;;;12.77
69785;BMP280;14177;51.520;6.764;2022-09-25T04:51:15;101236.56;;;12.74
69785;BMP280;14177;51.520;6.764;2022-09-25T04:53:42;101238.47;;;12.69
69785;BMP280;14177;51.520;6.764;2022-09-25T04:56:09;101235.97;;;12.66
69785;BMP280;14177;51.520;6.764;2022-09-25T04:58:47;101244.75;;;12.63
69785;BMP280;14177;51.520;6.764;2022-09-25T05:01:18;101243.09;;;12.61
69785;BMP280;14177;51.520;6.764;2022-09-25T05:03:50;101246.66;;;12.58
69785;BMP280;14177;51.520;6.764;2022-09-25T05:06:19;101245.03;;;12.54
69785;BMP280;14177;51.520;6.764;2022-09-25T05:08:47;101243.38;;;12.52
69785;BMP280;14177;51.520;6.764;2022-09-25T05:11:18;101252.97;;;12.51
69785;BMP280;14177;51.520;6.764;2022-09-25T05:13:49;101253.78;;;12.52
69785;BMP280;14177;51.520;6.764;2022-09-25T05:16:18;101245.13;;;12.51
69785;BMP280;14177;51.520;6.764;2022-09-25T05:18:45;101251.25;;;12.50
69785;BMP280;14177;51.520;6.764;2022-09-25T05:21:12;101246.13;;;12.47
69785;BMP280;14177;51.520;6.764;2022-09-25T05:23:40;101248.88;;;12.43
69785;BMP280;14177;51.520;6.764;2022-09-25T05:26:08;101250.66;;;12.41
69785;BMP280;14177;51.520;6.764;2022-09-25T05:28:36;101241.16;;;12.40
69785;BMP280;14177;51.520;6.764;2022-09-25T05:31:04;101249.09;;;12.37
69785;BMP280;14177;51.520;6.764;2022-09-25T05:33:33;101249.38;;;12.28
69785;BMP280;14177;51.520;6.764;2022-09-25T05:36:03;101249.47;;;12.25
69785;BMP280;14177;51.520;6.764;2022-09-25T05:38:36;101242.63;;;12.21
69785;BMP280;14177;51.520;6.764;2022-09-25T05:41:06;101250.53;;;12.18
69785;BMP280;14177;51.520;6.764;2022-09-25T05:43:38;101247.16;;;12.14
69785;BMP280;14177;51.520;6.764;2022-09-25T05:46:10;101244.59;;;12.13
69785;BMP280;14177;51.520;6.764;2022-09-25T05:48:37;101242.09;;;12.10
69785;BMP280;14177;51.520;6.764;2022-09-25T05:51:05;101244.81;;;12.06
69785;BMP280;14177;51.520;6.764;2022-09-25T05:53:32;101242.31;;;12.03
69785;BMP280;14177;51.520;6.764;2022-09-25T05:56:01;101239.75;;;12.01
69785;BMP280;14177;51.520;6.764;2022-09-25T05:58:31;101245.06;;;11.98
69785;BMP280;14177;51.520;6.764;2022-09-25T06:01:02;101245.06;;;11.98
69785;BMP280;14177;51.520;6.764;2022-09-25T06:03:30;101249.38;;;11.99
69785;BMP280;14177;51.520;6.764;2022-09-25T06:05:59;101250.25;;;11.98
69785;BMP280;14177;51.520;6.764;2022-09-25T06:08:28;101249.47;;;11.96
69785;BMP280;14177;51.520;6.764;2022-09-25T06:10:58;101246.00;;;11.96
69785;BMP280;14177;51.520;6.764;2022-09-25T06:13:27;101253.78;;;11.97
69785;BMP280;14177;51.520;6.764;2022-09-25T06:15:55;101252.06;;;11.96
69785;BMP280;14177;51.520;6.764;2022-09-25T06:18:24;101252.88;;;11.98
69785;BMP280;14177;51.520;6.764;2022-09-25T06:21:03;101251.97;;;11.99
69785;BMP280;14177;51.520;6.764;2022-09-25T06:23:30;101252.84;;;12.00
69785;BMP280;14177;51.520;6.764;2022-09-25T06:26:03;101261.41;;;12.03
69785;BMP280;14177;51.520;6.764;2022-09-25T06:28:31;101263.03;;;12.07
69785;BMP280;14177;51.520;6.764;2022-09-25T06:31:02;101257.75;;;12.08
69785;BMP280;14177;51.520;6.764;2022-09-25T06:33:31;101260.25;;;12.13
69785;BMP280;14177;51.520;6.764;2022-09-25T06:36:01;101262.69;;;12.17
69785;BMP280;14177;51.520;6.764;2022-09-25T06:38:32;101267.88;;;12.19
69785;BMP280;14177;51.520;6.764;2022-09-25T06:41:00;101265.25;;;12.19
69785;BMP280;14177;51.520;6.764;2022-09-25T06:43:29;101264.31;;;12.21
69785;BMP280;14177;51.520;6.764;2022-09-25T06:46:01;101264.19;;;12.26
69785;BMP280;14177;51.520;6.764;2022-09-25T06:48:30;101268.41;;;12.30
69785;BMP280;14177;51.520;6.764;2022-09-25T06:51:00;101271.66;;;12.36
69785;BMP280;14177;51.520;6.764;2022-09-25T06:53:28;101279.53;;;12.35
69785;BMP280;14177;51.520;6.764;2022-09-25T06:55:57;101281.94;;;12.41
69785;BMP280;14177;51.520;6.764;2022-09-25T06:58:28;101282.72;;;12.44
69785;BMP280;14177;51.520;6.764;2022-09-25T07:00:57;101289.53;;;12.48
69785;BMP280;14177;51.520;6.764;2022-09-25T07:03:24;101279.84;;;12.52
69785;BMP280;14177;51.520;6.764;2022-09-25T07:06:30;101283.09;;;12.60
69785;BMP280;14177;51.520;6.764;2022-09-25T07:09:00;101276.75;;;12.68
69785;BMP280;14177;51.520;6.764;2022-09-25T07:11:29;101284.22;;;12.79
69785;BMP280;14177;51.520;6.764;2022-09-25T07:14:00;101278.63;;;12.91
69785;BMP280;14177;51.520;6.764;2022-09-25T07:16:29;101283.47;;;13.03
69785;BMP280;14177;51.520;6.764;2022-09-25T07:18:59;101286.34;;;13.20
69785;BMP280;14177;51.520;6.764;2022-09-25T07:21:27;101276.47;;;13.29
69785;BMP280;14177;51.520;6.764;2022-09-25T07:24:05;101287.03;;;13.49
69785;BMP280;14177;51.520;6.764;2022-09-25T07:26:34;101290.03;;;13.63
69785;BMP280;14177;51.520;6.764;2022-09-25T07:29:09;101285.94;;;13.80
69785;BMP280;14177;51.520;6.764;2022-09-25T07:31:42;101280.75;;;14.02
69785;BMP280;14177;51.520;6.764;2022-09-25T07:34:10;101289.38;;;14.28
69785;BMP280;14177;51.520;6.764;2022-09-25T07:36:41;101287.50;;;14.53
69785;BMP280;14177;51.520;6.764;2022-09-25T07:39:11;101287.38;;;14.77
69785;BMP280;14177;51.520;6.764;2022-09-25T07:41:45;101286.31;;;15.03
69785;BMP280;14177;51.520;6.764;2022-09-25T07:44:16;101297.53;;;15.28
69785;BMP280;14177;51.520;6.764;2022-09-25T07:46:56;101284.41;;;15.48
69785;BMP280;14177;51.520;6.764;2022-09-25T07:49:24;101283.50;;;15.69
69785;BMP280;14177;51.520;6.764;2022-09-25T07:51:52;101278.94;;;15.92
69785;BMP280;14177;51.520;6.764;2022-09-25T07:54:19;101287.44;;;16.15
69785;BMP280;14177;51.520;6.764;2022-09-25T07:56:47;101282.03;;;16.38
69785;BMP280;14177;51.520;6.764;2022-09-25T07:59:15;101288.38;;;16.70
69785;BMP280;14177;51.520;6.764;2022-09-25T08:01:43;101286.19;;;16.96
69785;BMP280;14177;51.520;6.764;2022-09-25T08:04:17;101288.69;;;17.16
69785;BMP280;14177;51.520;6.764;2022-09-25T08:06:44;101283.38;;;17.34
69785;BMP280;14177;51.520;6.764;2022-09-25T08:09:11;101276.66;;;17.46
69785;BMP280;14177;51.520;6.764;2022-09-25T08:11:38;101274.16;;;17.60
69785;BMP280;14177;51.520;6.764;2022-09-25T08:14:05;101277.41;;;17.65
69785;BMP280;14177;51.520;6.764;2022-09-25T08:16:32;101286.44;;;17.76
69785;BMP280;14177;51.520;6.764;2022-09-25T08:18:58;101273.97;;;17.80
69785;BMP280;14177;51.520;6.764;2022-09-25T08:21:25;101266.03;;;17.97
69785;BMP280;14177;51.520;6.764;2022-09-25T08:23:53;101268.53;;;18.15
69785;BMP280;14177;51.520;6.764;2022-09-25T08:26:22;101262.13;;;18.36
69785;BMP280;14177;51.520;6.764;2022-09-25T08:28:49;101273.13;;;18.58
69785;BMP280;14177;51.520;6.764;2022-09-25T08:31:17;101269.06;;;18.83
69785;BMP280;14177;51.520;6.764;2022-09-25T08:33:46;101267.81;;;19.04
69785;BMP280;14177;51.520;6.764;2022-09-25T08:36:14;101268.81;;;19.17
69785;BMP280;14177;51.520;6.764;2022-09-25T08:38:42;101264.72;;;19.27
69785;BMP280;14177;51.520;6.764;2022-09-25T08:41:21;101270.03;;;19.41
69785;BMP280;14177;51.520;6.764;2022-09-25T08:44:18;101271.00;;;19.54
69785;BMP280;14177;51.520;6.764;2022-09-25T08:47:20;101262.06;;;19.70
69785;BMP280;14177;51.520;6.764;2022-09-25T08:50:23;101268.72;;;19.76
69785;BMP280;14177;51.520;6.764;2022-09-25T08:53:05;101260.63;;;19.79
69785;BMP280;14177;51.520;6.764;2022-09-25T08:55:37;101272.13;;;19.92
69785;BMP280;14177;51.520;6.764;2022-09-25T08:58:31;101260.22;;;20.00
69785;BMP280;14177;51.520;6.764;2022-09-25T09:01:03;101261.59;;;19.92
69785;BMP280;14177;51.520;6.764;2022-09-25T09:03:44;101261.03;;;19.87
69785;BMP280;14177;51.520;6.764;2022-09-25T09:06:15;101265.91;;;19.93
69785;BMP280;14177;51.520;6.764;2022-09-25T09:11:52;101245.38;;;19.84
69785;BMP280;14177;51.520;6.764;2022-09-25T09:14:29;101233.91;;;19.71
69785;BMP280;14177;51.520;6.764;2022-09-25T09:17:21;101251.81;;;19.66
69785;BMP280;14177;51.520;6.764;2022-09-25T09:19:54;101261.56;;;19.50
69785;BMP280;14177;51.520;6.764;2022-09-25T09:22:38;101256.25;;;19.93
69785;BMP280;14177;51.520;6.764;2022-09-25T09:25:42;101242.44;;;20.30
69785;BMP280;14177;51.520;6.764;2022-09-25T09:34:05;101246.97;;;20.95
69785;BMP280;14177;51.520;6.764;2022-09-25T09:39:41;101239.78;;;20.44
69785;BMP280;14177;51.520;6.764;2022-09-25T09:42:24;101257.72;;;20.66
69785;BMP280;14177;51.520;6.764;2022-09-25T09:53:45;101252.38;;;19.99
69785;BMP280;14177;51.520;6.764;2022-09-25T09:56:24;101231.44;;;19.82
69785;BMP280;14177;51.520;6.764;2022-09-25T09:59:21;101251.97;;;19.91
69785;BMP280;14177;51.520;6.764;2022-09-25T10:07:57;101238.50;;;20.64
69785;BMP280;14177;51.520;6.764;2022-09-25T10:10:38;101238.44;;;20.51
69785;BMP280;14177;51.520;6.764;2022-09-25T10:13:33;101239.25;;;20.66
69785;BMP280;14177;51.520;6.764;2022-09-25T10:16:10;101226.63;;;20.57
69785;BMP280;14177;51.520;6.764;2022-09-25T10:18:58;101233.47;;;20.99
69785;BMP280;14177;51.520;6.764;2022-09-25T10:21:43;101222.84;;;21.51
69785;BMP280;14177;51.520;6.764;2022-09-25T10:27:29;101208.00;;;22.46
69785;BMP280;14177;51.520;6.764;2022-09-25T10:30:20;101210.25;;;22.87
69785;BMP280;14177;51.520;6.764;2022-09-25T10:33:10;101212.56;;;22.68
69785;BMP280;14177;51.520;6.764;2022-09-25T10:35:50;101219.34;;;22.48
69785;BMP280;14177;51.520;6.764;2022-09-25T10:41:20;101210.75;;;22.92
69785;BMP280;14177;51.520;6.764;2022-09-25T10:43:56;101192.19;;;23.26
69785;BMP280;14177;51.520;6.764;2022-09-25T10:46:33;101200.31;;;23.68
69785;BMP280;14177;51.520;6.764;2022-09-25T10:49:46;101199.81;;;24.18
69785;BMP280;14177;51.520;6.764;2022-09-25T10:52:51;101198.00;;;24.30
69785;BMP280;14177;51.520;6.764;2022-09-25T10:55:35;101193.19;;;24.35
69785;BMP280;14177;51.520;6.764;2022-09-25T10:58:28;101190.91;;;23.64
69785;BMP280;14177;51.520;6.764;2022-09-25T11:01:50;101203.88;;;22.89
69785;BMP280;14177;51.520;6.764;2022-09-25T11:04:42;101199.72;;;22.74
69785;BMP280;14177;51.520;6.764;2022-09-25T11:07:19;101202.47;;;22.73
69785;BMP280;14177;51.520;6.764;2022-09-25T11:10:20;101191.66;;;22.29
69785;BMP280;14177;51.520;6.764;2022-09-25T11:16:52;101198.09;;;21.14
69785;BMP280;14177;51.520;6.764;2022-09-25T11:19:53;101200.09;;;20.72
69785;BMP280;14177;51.520;6.764;2022-09-25T11:23:21;101211.00;;;21.31
69785;BMP280;14177;51.520;6.764;2022-09-25T11:26:21;101190.75;;;22.05
69785;BMP280;14177;51.520;6.764;2022-09-25T11:33:54;101164.88;;;23.58
69785;BMP280;14177;51.520;6.764;2022-09-25T11:36:38;101172.44;;;24.18
69785;BMP280;14177;51.520;6.764;2022-09-25T11:39:22;101163.59;;;24.50
69785;BMP280;14177;51.520;6.764;2022-09-25T11:42:35;101165.44;;;24.70
69785;BMP280;14177;51.520;6.764;2022-09-25T11:45:17;101166.00;;;24.31
69785;BMP280;14177;51.520;6.764;2022-09-25T11:48:05;101157.16;;;23.55
69785;BMP280;14177;51.520;6.764;2022-09-25T11:57:03;101167.25;;;21.52
69785;BMP280;14177;51.520;6.764;2022-09-25T12:05:56;101155.22;;;23.25
69785;BMP280;14177;51.520;6.764;2022-09-25T12:09:09;101148.50;;;23.86
69785;BMP280;14177;51.520;6.764;2022-09-25T12:17:33;101140.06;;;23.81
69785;BMP280;14177;51.520;6.764;2022-09-25T12:20:32;101143.56;;;23.82
69785;BMP280;14177;51.520;6.764;2022-09-25T12:23:30;101141.19;;;24.21
69785;BMP280;14177;51.520;6.764;2022-09-25T12:26:20;101140.41;;;24.52
69785;BMP280;14177;51.520;6.764;2022-09-25T12:29:08;101135.59;;;24.35
69785;BMP280;14177;51.520;6.764;2022-09-25T12:38:34;101122.47;;;23.91
69785;BMP280;14177;51.520;6.764;2022-09-25T12:41:17;101116.00;;;24.16
69785;BMP280;14177;51.520;6.764;2022-09-25T12:43:55;101098.09;;;24.29
69785;BMP280;14177;51.520;6.764;2022-09-25T12:46:48;101104.84;;;24.64
69785;BMP280;14177;51.520;6.764;2022-09-25T12:49:24;101100.06;;;24.58
69785;BMP280;14177;51.520;6.764;2022-09-25T12:52:00;101094.19;;;24.75
69785;BMP280;14177;51.520;6.764;2022-09-25T12:54:36;101108.94;;;24.68
69785;BMP280;14177;51.520;6.764;2022-09-25T12:57:23;101092.53;;;24.83
69785;BMP280;14177;51.520;6.764;2022-09-25T13:00:04;101087.63;;;24.99
69785;BMP280;14177;51.520;6.764;2022-09-25T13:02:39;101088.19;;;25.03
69785;BMP280;14177;51.520;6.764;2022-09-25T13:05:22;101087.69;;;24.88
69785;BMP280;14177;51.520;6.764;2022-09-25T13:11:07;101082.09;;;24.91
69785;BMP280;14177;51.520;6.764;2022-09-25T13:13:49;101081.47;;;24.58
69785;BMP280;14177;51.520;6.764;2022-09-25T13:16:19;101072.19;;;24.21
69785;BMP280;14177;51.520;6.764;2022-09-25T13:19:10;101075.34;;;24.15
69785;BMP280;14177;51.520;6.764;2022-09-25T13:21:40;101074.28;;;24.38
69785;BMP280;14177;51.520;6.764;2022-09-25T13:24:14;101063.44;;;24.82
69785;BMP280;14177;51.520;6.764;2022-09-25T13:26:53;101066.91;;;25.03
69785;BMP280;14177;51.520;6.764;2022-09-25T13:29:33;101052.09;;;24.80
69785;BMP280;14177;51.520;6.764;2022-09-25T13:32:16;101066.09;;;24.30
69785;BMP280;14177;51.520;6.764;2022-09-25T13:34:44;101064.31;;;24.31
69785;BMP280;14177;51.520;6.764;2022-09-25T13:37:14;101057.88;;;24.65
69785;BMP280;14177;51.520;6.764;2022-09-25T13:39:47;101049.31;;;24.81
69785;BMP280;14177;51.520;6.764;2022-09-25T13:42:43;101041.88;;;24.75
69785;BMP280;14177;51.520;6.764;2022-09-25T13:48:00;101055.47;;;24.82
69785;BMP280;14177;51.520;6.764;2022-09-25T13:50:37;101054.56;;;24.92
69785;BMP280;14177;51.520;6.764;2022-09-25T13:53:20;101050.00;;;24.74
69785;BMP280;14177;51.520;6.764;2022-09-25T13:58:27;101049.91;;;24.13
69785;BMP280;14177;51.520;6.764;2022-09-25T14:00:57;101055.91;;;23.61
69785;BMP280;14177;51.520;6.764;2022-09-25T14:03:45;101051.97;;;23.56
69785;BMP280;14177;51.520;6.764;2022-09-25T14:06:30;101044.13;;;23.43
69785;BMP280;14177;51.520;6.764;2022-09-25T14:09:18;101046.53;;;23.03
69785;BMP280;14177;51.520;6.764;2022-09-25T14:14:39;101052.00;;;22.56
69785;BMP280;14177;51.520;6.764;2022-09-25T14:17:14;101047.44;;;22.69
69785;BMP280;14177;51.520;6.764;2022-09-25T14:19:46;101048.69;;;22.98
69785;BMP280;14177;51.520;6.764;2022-09-25T14:22:29;101047.06;;;23.19
69785;BMP280;14177;51.520;6.764;2022-09-25T14:24:59;101039.44;;;23.14
69785;BMP280;14177;51.520;6.764;2022-09-25T14:27:27;101036.03;;;22.79
69785;BMP280;14177;51.520;6.764;2022-09-25T14:30:10;101034.31;;;22.33
69785;BMP280;14177;51.520;6.764;2022-09-25T14:36:06;101035.88;;;22.70
69785;BMP280;14177;51.520;6.764;2022-09-25T14:41:56;101035.50;;;23.09
69785;BMP280;14177;51.520;6.764;2022-09-25T14:45:20;101037.53;;;22.60
69785;BMP280;14177;51.520;6.764;2022-09-25T14:47:56;101029.69;;;22.47
69785;BMP280;14177;51.520;6.764;2022-09-25T14:50:31;101024.78;;;22.30
69785;BMP280;14177;51.520;6.764;2022-09-25T14:53:08;101026.91;;;22.38
69785;BMP280;14177;51.520;6.764;2022-09-25T14:55:43;101018.03;;;22.61
69785;BMP280;14177;51.520;6.764;2022-09-25T14:58:19;101026.28;;;22.80
69785;BMP280;14177;51.520;6.764;2022-09-25T15:00:51;101015.09;;;22.87
69785;BMP280;14177;51.520;6.764;2022-09-25T15:03:25;101011.72;;;22.74
69785;BMP280;14177;51.520;6.764;2022-09-25T15:05:52;101008.19;;;22.74
69785;BMP280;14177;51.520;6.764;2022-09-25T15:08:37;101003.16;;;22.71
69785;BMP280;14177;51.520;6.764;2022-09-25T15:11:16;101000.75;;;22.57
69785;BMP280;14177;51.520;6.764;2022-09-25T15:13:44;101003.63;;;22.30
69785;BMP280;14177;51.520;6.764;2022-09-25T15:16:25;101000.66;;;21.77
69785;BMP280;14177;51.520;6.764;2022-09-25T15:19:26;101008.16;;;21.47
69785;BMP280;14177;51.520;6.764;2022-09-25T15:21:54;101007.44;;;21.33
69785;BMP280;14177;51.520;6.764;2022-09-25T15:24:26;101008.34;;;21.08
69785;BMP280;14177;51.520;6.764;2022-09-25T15:26:59;101010.41;;;21.28
69785;BMP280;14177;51.520;6.764;2022-09-25T15:29:41;101009.38;;;21.54
69785;BMP280;14177;51.520;6.764;2022-09-25T15:32:45;101002.97;;;21.46
69785;BMP280;14177;51.520;6.764;2022-09-25T15:35:17;100998.88;;;21.29
69785;BMP280;14177;51.520;6.764;2022-09-25T15:37:46;101000.13;;;21.00
69785;BMP280;14177;51.520;6.764;2022-09-25T15:40:21;101000.31;;;20.73
69785;BMP280;14177;51.520;6.764;2022-09-25T15:42:51;101000.19;;;20.49
69785;BMP280;14177;51.520;6.764;2022-09-25T15:48:19;100990.75;;;20.08
69785;BMP280;14177;51.520;6.764;2022-09-25T15:50:48;101000.56;;;19.92
69785;BMP280;14177;51.520;6.764;2022-09-25T15:53:26;101002.88;;;19.84
69785;BMP280;14177;51.520;6.764;2022-09-25T15:58:44;100998.53;;;19.57
69785;BMP280;14177;51.520;6.764;2022-09-25T16:01:15;101001.94;;;19.45
69785;BMP280;14177;51.520;6.764;2022-09-25T16:04:07;101008.03;;;19.19
69785;BMP280;14177;51.520;6.764;2022-09-25T16:06:54;101001.50;;;18.96
69785;BMP280;14177;51.520;6.764;2022-09-25T16:09:32;100996.28;;;18.82
69785;BMP280;14177;51.520;6.764;2022-09-25T16:14:53;100989.69;;;18.61
69785;BMP280;14177;51.520;6.764;2022-09-25T16:17:34;101000.38;;;18.58
69785;BMP280;14177;51.520;6.764;2022-09-25T16:20:04;100992.97;;;18.51
69785;BMP280;14177;51.520;6.764;2022-09-25T16:22:46;100994.25;;;18.44
69785;BMP280;14177;51.520;6.764;2022-09-25T16:25:24;101001.41;;;18.42
69785;BMP280;14177;51.520;6.764;2022-09-25T16:28:01;101008.97;;;18.33
69785;BMP280;14177;51.520;6.764;2022-09-25T16:30:29;100997.78;;;18.29
69785;BMP280;14177;51.520;6.764;2022-09-25T16:33:05;100996.00;;;18.30
69785;BMP280;14177;51.520;6.764;2022-09-25T16:35:37;100999.66;;;18.27
69785;BMP280;14177;51.520;6.764;2022-09-25T16:38:32;100996.31;;;18.24
69785;BMP280;14177;51.520;6.764;2022-09-25T16:43:35;101016.41;;;18.11
69785;BMP280;14177;51.520;6.764;2022-09-25T16:46:18;101013.97;;;18.08